sensor_id;sensor_type;location;lat;lon;timestamp;P1;durP1;ratioP1;P2;durP2;ratioP2
16282;SDS011;8249;48.708;9.030;2023-04-29T00:00:30;3.57;;;3.47;;
16282;SDS011;8249;48.708;9.030;2023-04-29T00:02:58;3.80;;;3.70;;
16282;SDS011;8249;48.708;9.030;2023-04-29T00:05:26;3.97;;;3.87;;
16282;SDS011;8249;48.708;9.030;2023-04-29T00:07:53;4.10;;;3.87;;
16282;SDS011;8249;48.708;9.030;2023-04-29T00:10:19;3.30;;;3.20;;
16282;SDS011;8249;48.708;9.030;2023-04-29T00:12:46;3.67;;;3.57;;
16282;SDS011;8249;48.708;9.030;2023-04-29T00:15:15;3.80;;;3.70;;
16282;SDS011;8249;48.708;9.030;2023-04-29T00:17:42;4.00;;;3.83;;
16282;SDS011;8249;48.708;9.030;2023-04-29T00:20:11;3.50;;;3.40;;
16282;SDS011;8249;48.708;9.030;2023-04-29T00:22:39;4.13;;;3.97;;
16282;SDS011;8249;48.708;9.030;2023-04-29T00:25:06;3.80;;;3.70;;
16282;SDS011;8249;48.708;9.030;2023-04-29T00:27:34;3.27;;;3.23;;
16282;SDS011;8249;48.708;9.030;2023-04-29T00:30:01;3.60;;;3.50;;
16282;SDS011;8249;48.708;9.030;2023-04-29T00:32:28;3.90;;;3.80;;
16282;SDS011;8249;48.708;9.030;2023-04-29T00:34:55;4.43;;;4.23;;
16282;SDS011;8249;48.708;9.030;2023-04-29T00:37:23;3.03;;;2.97;;
16282;SDS011;8249;48.708;9.030;2023-04-29T00:39:50;3.20;;;3.17;;
16282;SDS011;8249;48.708;9.030;2023-04-29T00:42:17;3.73;;;3.63;;
16282;SDS011;8249;48.708;9.030;2023-04-29T00:44:44;4.33;;;4.13;;
16282;SDS011;8249;48.708;9.030;2023-04-29T00:47:11;3.50;;;3.30;;
16282;SDS011;8249;48.708;9.030;2023-04-29T00:49:38;3.07;;;3.00;;
16282;SDS011;8249;48.708;9.030;2023-04-29T00:52:05;3.13;;;3.13;;
16282;SDS011;8249;48.708;9.030;2023-04-29T00:54:34;3.30;;;3.20;;
16282;SDS011;8249;48.708;9.030;2023-04-29T00:57:03;3.73;;;3.63;;
16282;SDS011;8249;48.708;9.030;2023-04-29T00:59:30;3.50;;;3.40;;
16282;SDS011;8249;48.708;9.030;2023-04-29T01:01:59;4.53;;;4.40;;
16282;SDS011;8249;48.708;9.030;2023-04-29T01:04:27;3.10;;;3.10;;
16282;SDS011;8249;48.708;9.030;2023-04-29T01:06:56;3.50;;;3.30;;
16282;SDS011;8249;48.708;9.030;2023-04-29T01:09:38;3.47;;;3.37;;
16282;SDS011;8249;48.708;9.030;2023-04-29T01:12:14;2.97;;;2.87;;
16282;SDS011;8249;48.708;9.030;2023-04-29T01:14:58;3.67;;;3.57;;
16282;SDS011;8249;48.708;9.030;2023-04-29T01:17:34;3.10;;;3.00;;
16282;SDS011;8249;48.708;9.030;2023-04-29T01:20:05;3.23;;;3.13;;
16282;SDS011;8249;48.708;9.030;2023-04-29T01:22:35;3.97;;;3.87;;
16282;SDS011;8249;48.708;9.030;2023-04-29T01:25:05;3.50;;;3.40;;
16282;SDS011;8249;48.708;9.030;2023-04-29T01:27:55;3.20;;;3.10;;
16282;SDS011;8249;48.708;9.030;2023-04-29T01:30:30;3.37;;;3.33;;
16282;SDS011;8249;48.708;9.030;2023-04-29T01:33:05;3.57;;;3.47;;
16282;SDS011;8249;48.708;9.030;2023-04-29T01:35:43;4.40;;;4.27;;
16282;SDS011;8249;48.708;9.030;2023-04-29T01:38:21;3.37;;;3.27;;
16282;SDS011;8249;48.708;9.030;2023-04-29T01:40:58;3.57;;;3.47;;
16282;SDS011;8249;48.708;9.030;2023-04-29T01:43:36;3.17;;;3.17;;
16282;SDS011;8249;48.708;9.030;2023-04-29T01:46:13;3.00;;;2.90;;
16282;SDS011;8249;48.708;9.030;2023-04-29T01:48:43;3.10;;;3.00;;
16282;SDS011;8249;48.708;9.030;2023-04-29T01:51:10;3.30;;;3.20;;
16282;SDS011;8249;48.708;9.030;2023-04-29T01:53:38;3.17;;;3.07;;
16282;SDS011;8249;48.708;9.030;2023-04-29T01:56:07;2.97;;;2.97;;
16282;SDS011;8249;48.708;9.030;2023-04-29T01:58:52;3.20;;;3.10;;
16282;SDS011;8249;48.708;9.030;2023-04-29T02:01:38;2.80;;;2.70;;
16282;SDS011;8249;48.708;9.030;2023-04-29T02:04:05;2.97;;;2.97;;
16282;SDS011;8249;48.708;9.030;2023-04-29T02:06:32;3.20;;;3.10;;
16282;SDS011;8249;48.708;9.030;2023-04-29T02:09:02;3.50;;;3.40;;
16282;SDS011;8249;48.708;9.030;2023-04-29T02:11:32;4.27;;;3.03;;
16282;SDS011;8249;48.708;9.030;2023-04-29T02:14:00;2.97;;;2.97;;
16282;SDS011;8249;48.708;9.030;2023-04-29T02:16:28;3.30;;;3.20;;
16282;SDS011;8249;48.708;9.030;2023-04-29T02:18:58;3.50;;;3.30;;
16282;SDS011;8249;48.708;9.030;2023-04-29T02:21:25;3.57;;;3.47;;
16282;SDS011;8249;48.708;9.030;2023-04-29T02:23:52;3.30;;;3.23;;
16282;SDS011;8249;48.708;9.030;2023-04-29T02:26:21;2.97;;;2.87;;
16282;SDS011;8249;48.708;9.030;2023-04-29T02:28:50;3.33;;;3.23;;
16282;SDS011;8249;48.708;9.030;2023-04-29T02:31:19;3.30;;;3.10;;
16282;SDS011;8249;48.708;9.030;2023-04-29T02:33:47;3.07;;;3.07;;
16282;SDS011;8249;48.708;9.030;2023-04-29T02:36:13;3.60;;;3.30;;
16282;SDS011;8249;48.708;9.030;2023-04-29T02:38:42;3.17;;;3.07;;
16282;SDS011;8249;48.708;9.030;2023-04-29T02:41:09;3.67;;;3.57;;
16282;SDS011;8249;48.708;9.030;2023-04-29T02:43:36;2.60;;;2.60;;
16282;SDS011;8249;48.708;9.030;2023-04-29T02:46:04;3.50;;;3.40;;
16282;SDS011;8249;48.708;9.030;2023-04-29T02:48:31;2.97;;;2.97;;
16282;SDS011;8249;48.708;9.030;2023-04-29T02:50:58;3.33;;;3.23;;
16282;SDS011;8249;48.708;9.030;2023-04-29T02:53:25;3.77;;;3.57;;
16282;SDS011;8249;48.708;9.030;2023-04-29T02:55:52;3.70;;;3.50;;
16282;SDS011;8249;48.708;9.030;2023-04-29T02:58:20;3.00;;;3.00;;
16282;SDS011;8249;48.708;9.030;2023-04-29T03:00:46;2.83;;;2.83;;
16282;SDS011;8249;48.708;9.030;2023-04-29T03:03:15;3.60;;;3.50;;
16282;SDS011;8249;48.708;9.030;2023-04-29T03:05:42;3.53;;;3.43;;
16282;SDS011;8249;48.708;9.030;2023-04-29T03:08:09;3.80;;;3.70;;
16282;SDS011;8249;48.708;9.030;2023-04-29T03:10:36;3.00;;;2.90;;
16282;SDS011;8249;48.708;9.030;2023-04-29T03:13:03;3.50;;;3.40;;
16282;SDS011;8249;48.708;9.030;2023-04-29T03:15:32;3.53;;;3.33;;
16282;SDS011;8249;48.708;9.030;2023-04-29T03:17:59;2.53;;;2.53;;
16282;SDS011;8249;48.708;9.030;2023-04-29T03:20:29;3.33;;;3.23;;
16282;SDS011;8249;48.708;9.030;2023-04-29T03:23:00;2.90;;;2.90;;
16282;SDS011;8249;48.708;9.030;2023-04-29T03:25:27;4.13;;;4.00;;
16282;SDS011;8249;48.708;9.030;2023-04-29T03:27:54;2.70;;;2.70;;
16282;SDS011;8249;48.708;9.030;2023-04-29T03:30:21;2.93;;;2.93;;
16282;SDS011;8249;48.708;9.030;2023-04-29T03:32:52;5.10;;;2.67;;
16282;SDS011;8249;48.708;9.030;2023-04-29T03:35:19;2.43;;;2.43;;
16282;SDS011;8249;48.708;9.030;2023-04-29T03:38:06;2.70;;;2.60;;
16282;SDS011;8249;48.708;9.030;2023-04-29T03:40:34;2.97;;;2.77;;
16282;SDS011;8249;48.708;9.030;2023-04-29T03:43:02;3.00;;;2.90;;
16282;SDS011;8249;48.708;9.030;2023-04-29T03:45:29;2.50;;;2.50;;
16282;SDS011;8249;48.708;9.030;2023-04-29T03:47:56;3.10;;;3.00;;
16282;SDS011;8249;48.708;9.030;2023-04-29T03:50:23;3.53;;;3.33;;
16282;SDS011;8249;48.708;9.030;2023-04-29T03:52:51;2.97;;;2.87;;
16282;SDS011;8249;48.708;9.030;2023-04-29T03:55:19;2.97;;;2.87;;
16282;SDS011;8249;48.708;9.030;2023-04-29T03:57:47;2.80;;;2.80;;
16282;SDS011;8249;48.708;9.030;2023-04-29T04:00:16;3.20;;;3.10;;
16282;SDS011;8249;48.708;9.030;2023-04-29T04:02:45;2.53;;;2.53;;
16282;SDS011;8249;48.708;9.030;2023-04-29T04:05:12;2.83;;;2.73;;
16282;SDS011;8249;48.708;9.030;2023-04-29T04:07:43;3.10;;;3.03;;
16282;SDS011;8249;48.708;9.030;2023-04-29T04:10:30;3.30;;;3.23;;
16282;SDS011;8249;48.708;9.030;2023-04-29T04:12:59;2.67;;;2.67;;
16282;SDS011;8249;48.708;9.030;2023-04-29T04:15:26;3.30;;;3.20;;
16282;SDS011;8249;48.708;9.030;2023-04-29T04:17:53;3.53;;;3.43;;
16282;SDS011;8249;48.708;9.030;2023-04-29T04:20:20;3.10;;;2.90;;
16282;SDS011;8249;48.708;9.030;2023-04-29T04:22:48;2.93;;;2.93;;
16282;SDS011;8249;48.708;9.030;2023-04-29T04:25:20;3.03;;;2.93;;
16282;SDS011;8249;48.708;9.030;2023-04-29T04:27:49;2.70;;;2.60;;
16282;SDS011;8249;48.708;9.030;2023-04-29T04:30:28;3.50;;;3.40;;
16282;SDS011;8249;48.708;9.030;2023-04-29T04:32:55;3.53;;;3.43;;
16282;SDS011;8249;48.708;9.030;2023-04-29T04:35:22;2.87;;;2.87;;
16282;SDS011;8249;48.708;9.030;2023-04-29T04:37:49;2.77;;;2.77;;
16282;SDS011;8249;48.708;9.030;2023-04-29T04:40:16;3.30;;;3.23;;
16282;SDS011;8249;48.708;9.030;2023-04-29T04:43:20;2.77;;;2.77;;
16282;SDS011;8249;48.708;9.030;2023-04-29T04:45:47;3.90;;;3.60;;
16282;SDS011;8249;48.708;9.030;2023-04-29T04:48:14;2.67;;;2.67;;
16282;SDS011;8249;48.708;9.030;2023-04-29T04:50:43;3.37;;;3.27;;
16282;SDS011;8249;48.708;9.030;2023-04-29T04:53:10;3.23;;;3.23;;
16282;SDS011;8249;48.708;9.030;2023-04-29T04:55:59;3.33;;;3.23;;
16282;SDS011;8249;48.708;9.030;2023-04-29T04:58:29;3.07;;;3.07;;
16282;SDS011;8249;48.708;9.030;2023-04-29T05:00:56;3.10;;;3.00;;
16282;SDS011;8249;48.708;9.030;2023-04-29T05:03:23;3.23;;;2.97;;
16282;SDS011;8249;48.708;9.030;2023-04-29T05:05:53;3.23;;;3.13;;
16282;SDS011;8249;48.708;9.030;2023-04-29T05:08:20;2.87;;;2.87;;
16282;SDS011;8249;48.708;9.030;2023-04-29T05:10:48;2.97;;;2.87;;
16282;SDS011;8249;48.708;9.030;2023-04-29T05:13:15;3.10;;;3.00;;
16282;SDS011;8249;48.708;9.030;2023-04-29T05:15:44;3.20;;;3.10;;
16282;SDS011;8249;48.708;9.030;2023-04-29T05:18:12;3.10;;;3.10;;
16282;SDS011;8249;48.708;9.030;2023-04-29T05:20:41;3.53;;;3.43;;
16282;SDS011;8249;48.708;9.030;2023-04-29T05:23:08;3.23;;;3.13;;
16282;SDS011;8249;48.708;9.030;2023-04-29T05:25:38;2.77;;;2.77;;
16282;SDS011;8249;48.708;9.030;2023-04-29T05:28:05;3.10;;;3.00;;
16282;SDS011;8249;48.708;9.030;2023-04-29T05:30:34;3.00;;;3.00;;
16282;SDS011;8249;48.708;9.030;2023-04-29T05:33:04;3.63;;;3.43;;
16282;SDS011;8249;48.708;9.030;2023-04-29T05:35:31;3.77;;;3.67;;
16282;SDS011;8249;48.708;9.030;2023-04-29T05:37:59;3.50;;;3.40;;
16282;SDS011;8249;48.708;9.030;2023-04-29T05:40:38;3.37;;;3.30;;
16282;SDS011;8249;48.708;9.030;2023-04-29T05:43:24;2.90;;;2.87;;
16282;SDS011;8249;48.708;9.030;2023-04-29T05:45:51;3.60;;;3.50;;
16282;SDS011;8249;48.708;9.030;2023-04-29T05:48:20;3.93;;;3.73;;
16282;SDS011;8249;48.708;9.030;2023-04-29T05:50:48;3.13;;;3.03;;
16282;SDS011;8249;48.708;9.030;2023-04-29T05:53:15;2.97;;;2.90;;
16282;SDS011;8249;48.708;9.030;2023-04-29T05:55:42;3.80;;;3.60;;
16282;SDS011;8249;48.708;9.030;2023-04-29T05:58:10;3.90;;;3.80;;
16282;SDS011;8249;48.708;9.030;2023-04-29T06:00:39;3.07;;;3.07;;
16282;SDS011;8249;48.708;9.030;2023-04-29T06:03:13;3.27;;;3.20;;
16282;SDS011;8249;48.708;9.030;2023-04-29T06:05:42;7.43;;;6.33;;
16282;SDS011;8249;48.708;9.030;2023-04-29T06:08:38;3.33;;;3.23;;
16282;SDS011;8249;48.708;9.030;2023-04-29T06:11:19;13.13;;;3.40;;
16282;SDS011;8249;48.708;9.030;2023-04-29T06:13:46;3.10;;;3.10;;
16282;SDS011;8249;48.708;9.030;2023-04-29T06:16:14;3.07;;;2.97;;
16282;SDS011;8249;48.708;9.030;2023-04-29T06:18:41;2.87;;;2.77;;
16282;SDS011;8249;48.708;9.030;2023-04-29T06:21:09;2.53;;;2.53;;
16282;SDS011;8249;48.708;9.030;2023-04-29T06:23:36;3.50;;;3.33;;
16282;SDS011;8249;48.708;9.030;2023-04-29T06:26:09;3.27;;;3.07;;
16282;SDS011;8249;48.708;9.030;2023-04-29T06:28:36;2.97;;;2.87;;
16282;SDS011;8249;48.708;9.030;2023-04-29T06:31:03;2.73;;;2.63;;
16282;SDS011;8249;48.708;9.030;2023-04-29T06:33:30;2.43;;;2.43;;
16282;SDS011;8249;48.708;9.030;2023-04-29T06:35:58;2.63;;;2.63;;
16282;SDS011;8249;48.708;9.030;2023-04-29T06:38:53;3.07;;;2.97;;
16282;SDS011;8249;48.708;9.030;2023-04-29T06:41:20;2.73;;;2.63;;
16282;SDS011;8249;48.708;9.030;2023-04-29T06:44:10;3.70;;;2.80;;
16282;SDS011;8249;48.708;9.030;2023-04-29T06:46:57;2.80;;;2.80;;
16282;SDS011;8249;48.708;9.030;2023-04-29T06:49:47;2.50;;;2.50;;
16282;SDS011;8249;48.708;9.030;2023-04-29T06:52:14;2.60;;;2.60;;
16282;SDS011;8249;48.708;9.030;2023-04-29T06:54:43;3.40;;;3.10;;
16282;SDS011;8249;48.708;9.030;2023-04-29T06:57:10;3.20;;;3.10;;
16282;SDS011;8249;48.708;9.030;2023-04-29T06:59:37;3.97;;;3.87;;
16282;SDS011;8249;48.708;9.030;2023-04-29T07:02:03;3.90;;;3.80;;
16282;SDS011;8249;48.708;9.030;2023-04-29T07:04:31;4.50;;;4.40;;
16282;SDS011;8249;48.708;9.030;2023-04-29T07:06:58;3.87;;;3.67;;
16282;SDS011;8249;48.708;9.030;2023-04-29T07:09:26;3.80;;;3.60;;
16282;SDS011;8249;48.708;9.030;2023-04-29T07:11:55;3.67;;;3.57;;
16282;SDS011;8249;48.708;9.030;2023-04-29T07:14:22;3.20;;;3.10;;
16282;SDS011;8249;48.708;9.030;2023-04-29T07:16:52;3.27;;;3.17;;
16282;SDS011;8249;48.708;9.030;2023-04-29T07:19:19;3.20;;;3.20;;
16282;SDS011;8249;48.708;9.030;2023-04-29T07:21:46;3.00;;;2.90;;
16282;SDS011;8249;48.708;9.030;2023-04-29T07:24:13;2.83;;;2.73;;
16282;SDS011;8249;48.708;9.030;2023-04-29T07:26:41;2.67;;;2.63;;
16282;SDS011;8249;48.708;9.030;2023-04-29T07:29:10;2.80;;;2.70;;
16282;SDS011;8249;48.708;9.030;2023-04-29T07:31:37;2.73;;;2.67;;
16282;SDS011;8249;48.708;9.030;2023-04-29T07:34:04;2.50;;;2.50;;
16282;SDS011;8249;48.708;9.030;2023-04-29T07:36:31;2.77;;;2.67;;
16282;SDS011;8249;48.708;9.030;2023-04-29T07:38:58;2.40;;;2.40;;
16282;SDS011;8249;48.708;9.030;2023-04-29T07:41:25;2.90;;;2.80;;
16282;SDS011;8249;48.708;9.030;2023-04-29T07:43:52;2.47;;;2.13;;
16282;SDS011;8249;48.708;9.030;2023-04-29T07:46:20;2.07;;;2.07;;
16282;SDS011;8249;48.708;9.030;2023-04-29T07:48:47;2.10;;;2.10;;
16282;SDS011;8249;48.708;9.030;2023-04-29T07:51:14;1.97;;;1.97;;
16282;SDS011;8249;48.708;9.030;2023-04-29T07:53:41;2.53;;;2.53;;
16282;SDS011;8249;48.708;9.030;2023-04-29T07:56:08;2.10;;;2.10;;
16282;SDS011;8249;48.708;9.030;2023-04-29T07:58:35;2.10;;;2.10;;
16282;SDS011;8249;48.708;9.030;2023-04-29T08:01:06;1.90;;;1.90;;
16282;SDS011;8249;48.708;9.030;2023-04-29T08:03:35;2.10;;;2.10;;
16282;SDS011;8249;48.708;9.030;2023-04-29T08:06:03;2.33;;;2.23;;
16282;SDS011;8249;48.708;9.030;2023-04-29T08:08:32;2.03;;;2.03;;
16282;SDS011;8249;48.708;9.030;2023-04-29T08:10:59;2.10;;;2.10;;
16282;SDS011;8249;48.708;9.030;2023-04-29T08:13:27;1.90;;;1.90;;
16282;SDS011;8249;48.708;9.030;2023-04-29T08:15:54;2.37;;;2.27;;
16282;SDS011;8249;48.708;9.030;2023-04-29T08:18:21;2.20;;;2.20;;
16282;SDS011;8249;48.708;9.030;2023-04-29T08:20:49;2.00;;;2.00;;
16282;SDS011;8249;48.708;9.030;2023-04-29T08:23:16;1.97;;;1.97;;
16282;SDS011;8249;48.708;9.030;2023-04-29T08:25:44;1.90;;;1.90;;
16282;SDS011;8249;48.708;9.030;2023-04-29T08:28:11;2.00;;;2.00;;
16282;SDS011;8249;48.708;9.030;2023-04-29T08:30:38;1.93;;;1.93;;
16282;SDS011;8249;48.708;9.030;2023-04-29T08:33:06;2.40;;;2.30;;
16282;SDS011;8249;48.708;9.030;2023-04-29T08:35:33;1.87;;;1.87;;
16282;SDS011;8249;48.708;9.030;2023-04-29T08:38:03;1.83;;;1.83;;
16282;SDS011;8249;48.708;9.030;2023-04-29T08:40:33;1.63;;;1.63;;
16282;SDS011;8249;48.708;9.030;2023-04-29T08:43:01;1.97;;;1.97;;
16282;SDS011;8249;48.708;9.030;2023-04-29T08:45:29;1.50;;;1.50;;
16282;SDS011;8249;48.708;9.030;2023-04-29T08:47:58;1.80;;;1.80;;
16282;SDS011;8249;48.708;9.030;2023-04-29T08:50:27;2.20;;;2.10;;
16282;SDS011;8249;48.708;9.030;2023-04-29T08:52:56;1.67;;;1.67;;
16282;SDS011;8249;48.708;9.030;2023-04-29T08:55:25;2.30;;;2.20;;
16282;SDS011;8249;48.708;9.030;2023-04-29T08:57:52;1.70;;;1.70;;
16282;SDS011;8249;48.708;9.030;2023-04-29T09:00:20;1.73;;;1.73;;
16282;SDS011;8249;48.708;9.030;2023-04-29T09:02:50;1.90;;;1.90;;
16282;SDS011;8249;48.708;9.030;2023-04-29T09:05:18;1.60;;;1.60;;
16282;SDS011;8249;48.708;9.030;2023-04-29T09:07:46;1.70;;;1.70;;
16282;SDS011;8249;48.708;9.030;2023-04-29T09:10:15;1.70;;;1.70;;
16282;SDS011;8249;48.708;9.030;2023-04-29T09:12:44;1.87;;;1.83;;
16282;SDS011;8249;48.708;9.030;2023-04-29T09:15:11;1.93;;;1.93;;
16282;SDS011;8249;48.708;9.030;2023-04-29T09:17:39;1.80;;;1.80;;
16282;SDS011;8249;48.708;9.030;2023-04-29T09:20:25;1.57;;;1.57;;
16282;SDS011;8249;48.708;9.030;2023-04-29T09:22:54;2.07;;;2.07;;
16282;SDS011;8249;48.708;9.030;2023-04-29T09:25:22;1.97;;;1.97;;
16282;SDS011;8249;48.708;9.030;2023-04-29T09:27:52;1.90;;;1.90;;
16282;SDS011;8249;48.708;9.030;2023-04-29T09:30:19;1.50;;;1.50;;
16282;SDS011;8249;48.708;9.030;2023-04-29T09:35:32;1.70;;;1.70;;
16282;SDS011;8249;48.708;9.030;2023-04-29T09:38:10;1.47;;;1.47;;
16282;SDS011;8249;48.708;9.030;2023-04-29T09:40:38;2.00;;;2.00;;
16282;SDS011;8249;48.708;9.030;2023-04-29T09:43:11;1.67;;;1.67;;
16282;SDS011;8249;48.708;9.030;2023-04-29T09:45:41;1.87;;;1.87;;
16282;SDS011;8249;48.708;9.030;2023-04-29T09:48:09;1.50;;;1.50;;
16282;SDS011;8249;48.708;9.030;2023-04-29T09:50:37;2.03;;;2.00;;
16282;SDS011;8249;48.708;9.030;2023-04-29T09:53:05;1.90;;;1.90;;
16282;SDS011;8249;48.708;9.030;2023-04-29T09:55:33;1.90;;;1.90;;
16282;SDS011;8249;48.708;9.030;2023-04-29T09:58:00;1.67;;;1.67;;
16282;SDS011;8249;48.708;9.030;2023-04-29T10:00:30;1.87;;;1.77;;
16282;SDS011;8249;48.708;9.030;2023-04-29T10:02:59;1.80;;;1.80;;
16282;SDS011;8249;48.708;9.030;2023-04-29T10:05:27;1.50;;;1.50;;
16282;SDS011;8249;48.708;9.030;2023-04-29T10:07:56;1.87;;;1.87;;
16282;SDS011;8249;48.708;9.030;2023-04-29T10:10:24;1.77;;;1.77;;
16282;SDS011;8249;48.708;9.030;2023-04-29T10:12:52;2.03;;;2.03;;
16282;SDS011;8249;48.708;9.030;2023-04-29T10:15:22;1.97;;;1.97;;
16282;SDS011;8249;48.708;9.030;2023-04-29T10:17:58;1.83;;;1.83;;
16282;SDS011;8249;48.708;9.030;2023-04-29T10:20:33;2.20;;;2.20;;
16282;SDS011;8249;48.708;9.030;2023-04-29T10:23:02;1.73;;;1.73;;
16282;SDS011;8249;48.708;9.030;2023-04-29T10:25:30;1.65;;;1.65;;
16282;SDS011;8249;48.708;9.030;2023-04-29T10:27:58;1.73;;;1.73;;
16282;SDS011;8249;48.708;9.030;2023-04-29T10:30:26;2.35;;;2.25;;
16282;SDS011;8249;48.708;9.030;2023-04-29T10:32:53;1.70;;;1.60;;
16282;SDS011;8249;48.708;9.030;2023-04-29T10:35:23;1.75;;;1.75;;
16282;SDS011;8249;48.708;9.030;2023-04-29T10:37:51;1.60;;;1.60;;
16282;SDS011;8249;48.708;9.030;2023-04-29T10:40:21;1.48;;;1.48;;
16282;SDS011;8249;48.708;9.030;2023-04-29T10:42:53;1.35;;;1.35;;
16282;SDS011;8249;48.708;9.030;2023-04-29T10:45:21;1.35;;;1.35;;
16282;SDS011;8249;48.708;9.030;2023-04-29T10:48:08;1.75;;;1.75;;
16282;SDS011;8249;48.708;9.030;2023-04-29T10:53:28;1.63;;;1.63;;
16282;SDS011;8249;48.708;9.030;2023-04-29T10:55:57;1.40;;;1.40;;
16282;SDS011;8249;48.708;9.030;2023-04-29T10:58:41;1.90;;;1.90;;
16282;SDS011;8249;48.708;9.030;2023-04-29T11:01:09;1.65;;;1.65;;
16282;SDS011;8249;48.708;9.030;2023-04-29T11:03:44;1.75;;;1.75;;
16282;SDS011;8249;48.708;9.030;2023-04-29T11:06:21;1.50;;;1.50;;
16282;SDS011;8249;48.708;9.030;2023-04-29T11:08:58;1.75;;;1.67;;
16282;SDS011;8249;48.708;9.030;2023-04-29T11:11:38;1.70;;;1.60;;
16282;SDS011;8249;48.708;9.030;2023-04-29T11:14:14;1.55;;;1.55;;
16282;SDS011;8249;48.708;9.030;2023-04-29T11:16:46;2.13;;;2.03;;
16282;SDS011;8249;48.708;9.030;2023-04-29T11:19:14;1.55;;;1.55;;
16282;SDS011;8249;48.708;9.030;2023-04-29T11:21:45;1.60;;;1.60;;
16282;SDS011;8249;48.708;9.030;2023-04-29T11:24:12;1.65;;;1.65;;
16282;SDS011;8249;48.708;9.030;2023-04-29T11:26:41;1.83;;;1.83;;
16282;SDS011;8249;48.708;9.030;2023-04-29T11:29:10;1.92;;;1.83;;
16282;SDS011;8249;48.708;9.030;2023-04-29T11:31:37;2.03;;;2.00;;
16282;SDS011;8249;48.708;9.030;2023-04-29T11:34:05;1.95;;;1.95;;
16282;SDS011;8249;48.708;9.030;2023-04-29T11:36:32;2.30;;;2.20;;
16282;SDS011;8249;48.708;9.030;2023-04-29T11:39:02;1.70;;;1.70;;
16282;SDS011;8249;48.708;9.030;2023-04-29T11:41:30;1.60;;;1.60;;
16282;SDS011;8249;48.708;9.030;2023-04-29T11:43:57;1.70;;;1.70;;
16282;SDS011;8249;48.708;9.030;2023-04-29T11:46:25;1.63;;;1.63;;
16282;SDS011;8249;48.708;9.030;2023-04-29T11:48:56;1.50;;;1.50;;
16282;SDS011;8249;48.708;9.030;2023-04-29T11:51:25;2.65;;;2.45;;
16282;SDS011;8249;48.708;9.030;2023-04-29T11:53:52;1.90;;;1.90;;
16282;SDS011;8249;48.708;9.030;2023-04-29T11:56:24;1.90;;;1.75;;
16282;SDS011;8249;48.708;9.030;2023-04-29T11:58:54;1.65;;;1.65;;
16282;SDS011;8249;48.708;9.030;2023-04-29T12:01:21;1.30;;;1.30;;
16282;SDS011;8249;48.708;9.030;2023-04-29T12:03:50;1.55;;;1.55;;
16282;SDS011;8249;48.708;9.030;2023-04-29T12:06:25;1.50;;;1.50;;
16282;SDS011;8249;48.708;9.030;2023-04-29T12:08:53;1.40;;;1.40;;
16282;SDS011;8249;48.708;9.030;2023-04-29T12:11:21;1.48;;;1.48;;
16282;SDS011;8249;48.708;9.030;2023-04-29T12:13:51;1.40;;;1.40;;
16282;SDS011;8249;48.708;9.030;2023-04-29T12:16:19;1.30;;;1.30;;
16282;SDS011;8249;48.708;9.030;2023-04-29T12:18:48;1.85;;;1.80;;
16282;SDS011;8249;48.708;9.030;2023-04-29T12:21:15;1.23;;;1.23;;
16282;SDS011;8249;48.708;9.030;2023-04-29T12:23:42;1.52;;;1.52;;
16282;SDS011;8249;48.708;9.030;2023-04-29T12:26:11;1.45;;;1.45;;
16282;SDS011;8249;48.708;9.030;2023-04-29T12:28:39;1.48;;;1.48;;
16282;SDS011;8249;48.708;9.030;2023-04-29T12:31:09;1.42;;;1.42;;
16282;SDS011;8249;48.708;9.030;2023-04-29T12:33:36;1.38;;;1.38;;
16282;SDS011;8249;48.708;9.030;2023-04-29T12:36:03;1.23;;;1.23;;
16282;SDS011;8249;48.708;9.030;2023-04-29T12:38:41;1.55;;;1.55;;
16282;SDS011;8249;48.708;9.030;2023-04-29T12:41:09;1.55;;;1.55;;
16282;SDS011;8249;48.708;9.030;2023-04-29T12:43:38;1.70;;;1.60;;
16282;SDS011;8249;48.708;9.030;2023-04-29T12:46:05;1.58;;;1.58;;
16282;SDS011;8249;48.708;9.030;2023-04-29T12:48:35;2.03;;;1.92;;
16282;SDS011;8249;48.708;9.030;2023-04-29T12:51:07;1.85;;;1.85;;
16282;SDS011;8249;48.708;9.030;2023-04-29T12:53:35;1.95;;;1.70;;
16282;SDS011;8249;48.708;9.030;2023-04-29T12:56:03;2.00;;;2.00;;
16282;SDS011;8249;48.708;9.030;2023-04-29T12:58:30;2.22;;;2.13;;
16282;SDS011;8249;48.708;9.030;2023-04-29T13:00:58;2.22;;;2.15;;
16282;SDS011;8249;48.708;9.030;2023-04-29T13:03:26;2.40;;;2.30;;
16282;SDS011;8249;48.708;9.030;2023-04-29T13:05:54;2.05;;;2.05;;
16282;SDS011;8249;48.708;9.030;2023-04-29T13:08:21;1.73;;;1.63;;
16282;SDS011;8249;48.708;9.030;2023-04-29T13:10:48;2.30;;;2.20;;
16282;SDS011;8249;48.708;9.030;2023-04-29T13:13:15;1.95;;;1.85;;
16282;SDS011;8249;48.708;9.030;2023-04-29T13:15:42;1.63;;;1.63;;
16282;SDS011;8249;48.708;9.030;2023-04-29T13:18:09;2.10;;;2.00;;
16282;SDS011;8249;48.708;9.030;2023-04-29T13:20:36;2.20;;;2.10;;
16282;SDS011;8249;48.708;9.030;2023-04-29T13:23:04;1.75;;;1.65;;
16282;SDS011;8249;48.708;9.030;2023-04-29T13:25:31;2.13;;;2.03;;
16282;SDS011;8249;48.708;9.030;2023-04-29T13:27:58;2.53;;;2.42;;
16282;SDS011;8249;48.708;9.030;2023-04-29T13:30:25;2.40;;;2.30;;
16282;SDS011;8249;48.708;9.030;2023-04-29T13:32:52;2.10;;;2.03;;
16282;SDS011;8249;48.708;9.030;2023-04-29T13:35:19;3.35;;;2.10;;
16282;SDS011;8249;48.708;9.030;2023-04-29T13:37:46;3.55;;;2.42;;
16282;SDS011;8249;48.708;9.030;2023-04-29T13:40:15;2.53;;;2.35;;
16282;SDS011;8249;48.708;9.030;2023-04-29T13:42:42;2.00;;;1.90;;
16282;SDS011;8249;48.708;9.030;2023-04-29T13:45:09;2.55;;;2.35;;
16282;SDS011;8249;48.708;9.030;2023-04-29T13:47:36;2.10;;;2.00;;
16282;SDS011;8249;48.708;9.030;2023-04-29T13:50:03;2.30;;;1.90;;
16282;SDS011;8249;48.708;9.030;2023-04-29T13:52:31;2.35;;;2.15;;
16282;SDS011;8249;48.708;9.030;2023-04-29T13:54:58;3.22;;;2.92;;
16282;SDS011;8249;48.708;9.030;2023-04-29T13:57:26;2.50;;;2.35;;
16282;SDS011;8249;48.708;9.030;2023-04-29T13:59:53;1.60;;;1.60;;
16282;SDS011;8249;48.708;9.030;2023-04-29T14:02:20;2.60;;;2.50;;
16282;SDS011;8249;48.708;9.030;2023-04-29T14:04:47;2.33;;;2.20;;
16282;SDS011;8249;48.708;9.030;2023-04-29T14:07:14;2.47;;;2.28;;
16282;SDS011;8249;48.708;9.030;2023-04-29T14:09:41;2.30;;;2.20;;
16282;SDS011;8249;48.708;9.030;2023-04-29T14:12:08;2.15;;;2.05;;
16282;SDS011;8249;48.708;9.030;2023-04-29T14:14:37;2.15;;;2.05;;
16282;SDS011;8249;48.708;9.030;2023-04-29T14:17:03;2.08;;;1.98;;
16282;SDS011;8249;48.708;9.030;2023-04-29T14:19:31;2.15;;;2.05;;
16282;SDS011;8249;48.708;9.030;2023-04-29T14:21:58;4.15;;;3.28;;
16282;SDS011;8249;48.708;9.030;2023-04-29T14:24:24;3.00;;;2.80;;
16282;SDS011;8249;48.708;9.030;2023-04-29T14:26:51;2.63;;;2.38;;
16282;SDS011;8249;48.708;9.030;2023-04-29T14:29:19;2.67;;;2.55;;
16282;SDS011;8249;48.708;9.030;2023-04-29T14:31:47;2.67;;;2.58;;
16282;SDS011;8249;48.708;9.030;2023-04-29T14:34:14;2.78;;;2.65;;
16282;SDS011;8249;48.708;9.030;2023-04-29T14:36:43;2.80;;;2.60;;
16282;SDS011;8249;48.708;9.030;2023-04-29T14:39:10;3.42;;;3.22;;
16282;SDS011;8249;48.708;9.030;2023-04-29T14:41:37;3.83;;;3.63;;
16282;SDS011;8249;48.708;9.030;2023-04-29T14:44:04;3.13;;;2.92;;
16282;SDS011;8249;48.708;9.030;2023-04-29T14:46:31;3.22;;;3.03;;
16282;SDS011;8249;48.708;9.030;2023-04-29T14:49:00;3.03;;;2.92;;
16282;SDS011;8249;48.708;9.030;2023-04-29T14:51:27;3.05;;;2.72;;
16282;SDS011;8249;48.708;9.030;2023-04-29T14:53:57;2.78;;;2.67;;
16282;SDS011;8249;48.708;9.030;2023-04-29T14:56:27;4.13;;;3.60;;
16282;SDS011;8249;48.708;9.030;2023-04-29T14:58:54;2.78;;;2.67;;
16282;SDS011;8249;48.708;9.030;2023-04-29T15:01:22;2.78;;;2.67;;
16282;SDS011;8249;48.708;9.030;2023-04-29T15:03:50;2.75;;;2.65;;
16282;SDS011;8249;48.708;9.030;2023-04-29T15:06:18;3.33;;;3.13;;
16282;SDS011;8249;48.708;9.030;2023-04-29T15:08:45;3.10;;;3.00;;
16282;SDS011;8249;48.708;9.030;2023-04-29T15:11:12;2.35;;;2.25;;
16282;SDS011;8249;48.708;9.030;2023-04-29T15:13:39;3.13;;;2.97;;
16282;SDS011;8249;48.708;9.030;2023-04-29T15:16:06;3.45;;;3.25;;
16282;SDS011;8249;48.708;9.030;2023-04-29T15:18:34;2.75;;;2.55;;